createdAt,value
2023-02-19T00:00:05.005Z,18.38
2023-02-19T00:02:31.536Z,18.58
2023-02-19T00:04:58.101Z,19.10
2023-02-19T00:07:24.642Z,17.85
2023-02-19T00:09:51.133Z,17.75
2023-02-19T00:12:17.655Z,17.60
2023-02-19T00:14:44.266Z,17.17
2023-02-19T00:17:10.784Z,16.58
2023-02-19T00:19:37.327Z,16.08
2023-02-19T00:22:03.818Z,15.32
2023-02-19T00:24:30.330Z,14.43
2023-02-19T00:26:56.864Z,14.77
2023-02-19T00:29:24.978Z,14.88
2023-02-19T00:31:51.663Z,15.15
2023-02-19T00:34:18.213Z,13.80
2023-02-19T00:36:44.711Z,13.95
2023-02-19T00:39:15.719Z,14.18
2023-02-19T00:41:42.604Z,13.35
2023-02-19T00:44:11.320Z,12.00
2023-02-19T00:46:45.961Z,11.45
2023-02-19T00:49:22.072Z,12.07
2023-02-19T00:51:50.535Z,12.60
2023-02-19T00:54:17.433Z,12.68
2023-02-19T00:56:44.144Z,12.27
2023-02-19T00:59:11.034Z,11.88
2023-02-19T01:01:37.822Z,11.13
2023-02-19T01:04:06.547Z,10.60
2023-02-19T01:06:34.633Z,10.68
2023-02-19T01:09:01.215Z,10.15
2023-02-19T01:11:27.944Z,9.85
2023-02-19T01:13:58.594Z,10.07
2023-02-19T01:16:25.284Z,9.55
2023-02-19T01:18:52.201Z,9.85
2023-02-19T01:21:22.051Z,8.82
2023-02-19T01:23:50.087Z,8.77
2023-02-19T01:26:22.168Z,8.80
2023-02-19T01:28:48.783Z,8.88
2023-02-19T01:31:24.123Z,7.65
2023-02-19T01:33:53.590Z,7.47
2023-02-19T01:36:20.332Z,7.88
2023-02-19T01:38:47.419Z,7.70
2023-02-19T01:41:17.489Z,7.70
2023-02-19T01:44:17.075Z,7.65
2023-02-19T01:46:45.211Z,6.70
2023-02-19T01:49:16.401Z,7.07
2023-02-19T01:51:50.974Z,7.43
2023-02-19T01:54:22.496Z,6.45
2023-02-19T01:56:49.922Z,6.15
2023-02-19T01:59:17.159Z,6.68
2023-02-19T02:01:43.912Z,7.07
2023-02-19T02:04:13.360Z,5.82
2023-02-19T02:06:44.140Z,6.57
2023-02-19T02:09:29.475Z,5.80
2023-02-19T02:11:56.034Z,5.65
2023-02-19T02:14:26.824Z,5.68
2023-02-19T02:17:34.359Z,5.63
2023-02-19T02:20:41.219Z,5.70
2023-02-19T02:23:44.824Z,5.07
2023-02-19T02:26:35.438Z,5.25
2023-02-19T02:29:45.930Z,5.07
2023-02-19T02:32:26.874Z,5.40
2023-02-19T02:35:24.205Z,5.55
2023-02-19T02:37:54.115Z,4.25
2023-02-19T02:40:20.845Z,5.13
2023-02-19T02:42:47.625Z,5.13
2023-02-19T02:45:37.257Z,4.72
2023-02-19T02:48:30.144Z,4.10
2023-02-19T02:51:25.572Z,4.60
2023-02-19T02:54:22.870Z,3.95
2023-02-19T02:56:50.239Z,4.53
2023-02-19T02:59:21.817Z,4.05
2023-02-19T03:02:14.256Z,3.65
2023-02-19T03:05:03.885Z,4.15
2023-02-19T03:07:37.114Z,3.80
2023-02-19T03:10:07.855Z,3.55
2023-02-19T03:12:57.431Z,3.60
2023-02-19T03:15:47.372Z,3.33
2023-02-19T03:18:34.333Z,3.92
2023-02-19T03:21:02.461Z,4.10
2023-02-19T03:23:51.602Z,4.53
2023-02-19T03:26:19.808Z,3.83
2023-02-19T03:29:08.854Z,3.08
2023-02-19T03:31:39.815Z,3.60
2023-02-19T03:34:12.663Z,3.20
2023-02-19T03:36:50.802Z,3.27
2023-02-19T03:39:21.620Z,4.35
2023-02-19T03:42:17.250Z,3.30
2023-02-19T03:45:21.978Z,3.25
2023-02-19T03:50:19.599Z,2.72
2023-02-19T03:52:52.345Z,2.95
2023-02-19T03:56:04.615Z,3.97
2023-02-19T03:59:08.118Z,2.72
2023-02-19T04:01:34.561Z,2.70
2023-02-19T04:04:09.185Z,2.53
2023-02-19T04:06:37.798Z,2.55
2023-02-19T04:09:08.683Z,2.53
2023-02-19T04:11:36.611Z,3.65
2023-02-19T04:14:10.301Z,3.05
2023-02-19T04:19:10.852Z,3.22
2023-02-19T04:21:39.631Z,2.65
2023-02-19T04:24:14.581Z,3.03
2023-02-19T04:26:42.389Z,2.88
2023-02-19T04:29:08.945Z,2.90
2023-02-19T04:31:36.487Z,2.38
2023-02-19T04:34:03.878Z,2.63
2023-02-19T04:36:31.627Z,2.58
2023-02-19T04:38:58.273Z,3.40
2023-02-19T04:41:25.127Z,2.50
2023-02-19T04:43:51.644Z,2.20
2023-02-19T04:46:18.258Z,2.85
2023-02-19T04:48:44.892Z,3.00
2023-02-19T04:51:11.957Z,2.75
2023-02-19T04:53:38.733Z,2.42
2023-02-19T04:56:11.033Z,2.53
2023-02-19T04:58:37.599Z,2.45
2023-02-19T05:01:04.558Z,2.05
2023-02-19T05:03:31.334Z,2.55
2023-02-19T05:05:57.858Z,2.58
2023-02-19T05:08:24.398Z,2.03
2023-02-19T05:10:50.967Z,2.20
2023-02-19T05:13:17.524Z,2.30
2023-02-19T05:15:54.766Z,2.63
2023-02-19T05:18:21.304Z,2.38
2023-02-19T05:20:47.791Z,2.03
2023-02-19T05:23:14.289Z,2.97
2023-02-19T05:25:40.791Z,1.92
2023-02-19T05:28:19.295Z,2.05
2023-02-19T05:30:48.731Z,2.53
2023-02-19T05:33:16.280Z,2.20
2023-02-19T05:35:53.195Z,2.00
2023-02-19T05:38:20.032Z,2.13
2023-02-19T05:40:46.965Z,2.20
2023-02-19T05:43:14.258Z,1.90
2023-02-19T05:45:41.247Z,1.92
2023-02-19T05:48:08.726Z,2.30
2023-02-19T05:50:38.258Z,1.98
2023-02-19T05:53:06.379Z,1.80
2023-02-19T05:55:36.411Z,2.05
2023-02-19T05:58:03.400Z,1.98
2023-02-19T06:00:30.519Z,1.90
2023-02-19T06:02:57.132Z,2.00
2023-02-19T06:05:23.734Z,1.67
2023-02-19T06:07:50.564Z,2.20
2023-02-19T06:10:18.205Z,2.08
2023-02-19T06:12:45.362Z,2.22
2023-02-19T06:15:11.858Z,1.70
2023-02-19T06:17:38.406Z,1.80
2023-02-19T06:20:05.165Z,2.50
2023-02-19T06:22:31.668Z,2.33
2023-02-19T06:24:58.199Z,1.50
2023-02-19T06:27:24.786Z,1.63
2023-02-19T06:29:51.304Z,1.70
2023-02-19T06:32:18.035Z,1.88
2023-02-19T06:34:44.737Z,2.22
2023-02-19T06:37:11.258Z,1.83
2023-02-19T06:39:37.848Z,2.35
2023-02-19T06:42:04.475Z,1.80
2023-02-19T06:44:31.029Z,1.88
2023-02-19T06:46:57.559Z,1.55
2023-02-19T06:49:24.093Z,1.17
2023-02-19T06:51:50.634Z,1.80
2023-02-19T06:54:17.138Z,1.58
2023-02-19T06:56:46.139Z,2.00
2023-02-19T06:59:18.823Z,2.10
2023-02-19T07:01:46.124Z,2.22
2023-02-19T07:04:12.758Z,2.97
2023-02-19T07:06:39.348Z,4.32
2023-02-19T07:09:07.665Z,4.75
2023-02-19T07:11:36.402Z,5.55
2023-02-19T07:14:04.855Z,6.68
2023-02-19T07:16:31.480Z,7.45
2023-02-19T07:18:59.123Z,8.55
2023-02-19T07:21:25.982Z,7.03
2023-02-19T07:23:52.999Z,8.05
2023-02-19T07:26:20.595Z,7.75
2023-02-19T07:28:48.723Z,8.80
2023-02-19T07:31:17.597Z,8.07
2023-02-19T07:33:45.108Z,8.98
2023-02-19T07:36:12.738Z,9.63
2023-02-19T07:38:39.898Z,11.27
2023-02-19T07:41:07.107Z,11.30
2023-02-19T07:43:35.908Z,10.93
2023-02-19T07:46:04.065Z,12.20
2023-02-19T07:48:30.664Z,12.05
2023-02-19T07:50:59.681Z,13.20
2023-02-19T07:53:27.667Z,13.35
2023-02-19T07:55:54.494Z,12.68
2023-02-19T07:58:20.996Z,14.40
2023-02-19T08:00:47.603Z,15.38
2023-02-19T08:03:14.173Z,14.48
2023-02-19T08:05:42.833Z,14.10
2023-02-19T08:08:14.389Z,15.23
2023-02-19T08:10:59.573Z,16.35
2023-02-19T08:13:30.105Z,15.20
2023-02-19T08:16:20.140Z,16.88
2023-02-19T08:18:49.214Z,17.33
2023-02-19T08:21:18.198Z,17.38
2023-02-19T08:23:46.258Z,18.35
2023-02-19T08:26:12.805Z,19.58
2023-02-19T08:28:39.366Z,19.10
2023-02-19T08:31:07.546Z,20.33
2023-02-19T08:33:34.587Z,21.35
2023-02-19T08:36:06.466Z,21.65
2023-02-19T08:38:35.837Z,21.52
2023-02-19T08:41:10.598Z,22.15
2023-02-19T08:43:37.460Z,20.27
2023-02-19T08:46:04.399Z,21.30
2023-02-19T08:48:30.947Z,22.90
2023-02-19T08:50:59.695Z,20.60
2023-02-19T08:53:26.497Z,22.38
2023-02-19T08:55:53.416Z,22.08
2023-02-19T08:58:20.022Z,22.30
2023-02-19T09:00:46.629Z,21.25
2023-02-19T09:03:13.166Z,21.77
2023-02-19T09:05:40.005Z,22.52
2023-02-19T09:08:06.581Z,22.75
2023-02-19T09:10:33.117Z,23.25
2023-02-19T09:12:59.785Z,21.70
2023-02-19T09:15:26.414Z,21.63
2023-02-19T09:17:53.286Z,23.55
2023-02-19T09:20:20.044Z,25.05
2023-02-19T09:22:47.101Z,23.70
2023-02-19T09:25:13.633Z,24.63
2023-02-19T09:27:40.116Z,27.08
2023-02-19T09:30:07.202Z,27.67
2023-02-19T09:32:33.848Z,29.15
2023-02-19T09:35:00.390Z,26.85
2023-02-19T09:37:27.985Z,26.30
2023-02-19T09:39:55.335Z,27.67
2023-02-19T09:42:29.766Z,27.77
2023-02-19T09:44:59.251Z,26.40
2023-02-19T09:47:29.473Z,27.50
2023-02-19T09:50:00.464Z,27.20
2023-02-19T09:52:44.757Z,26.42
2023-02-19T09:55:20.627Z,26.27
2023-02-19T09:57:47.525Z,26.77
2023-02-19T10:00:23.503Z,26.10
2023-02-19T10:03:00.009Z,25.20
2023-02-19T10:05:27.304Z,24.52
2023-02-19T10:07:55.564Z,24.60
2023-02-19T10:10:35.276Z,24.75
2023-02-19T10:13:30.375Z,22.60
2023-02-19T10:15:59.048Z,23.00
2023-02-19T10:18:29.150Z,22.98
2023-02-19T10:20:57.014Z,22.42
2023-02-19T10:23:25.211Z,23.20
2023-02-19T10:25:56.678Z,21.00
2023-02-19T10:28:27.346Z,21.33
2023-02-19T10:30:57.160Z,21.05
2023-02-19T10:33:24.708Z,20.15
2023-02-19T10:35:55.904Z,19.60
2023-02-19T10:38:45.287Z,19.67
2023-02-19T10:41:18.034Z,18.08
2023-02-19T10:44:04.714Z,18.63
2023-02-19T10:46:43.499Z,17.10
2023-02-19T10:49:51.617Z,17.55
2023-02-19T10:52:28.282Z,16.50
2023-02-19T10:55:24.806Z,17.33
2023-02-19T10:57:51.412Z,15.93
2023-02-19T11:00:27.491Z,16.00
2023-02-19T11:03:15.286Z,15.32
2023-02-19T11:06:00.586Z,14.50
2023-02-19T11:08:27.325Z,14.68
2023-02-19T11:10:54.039Z,14.07
2023-02-19T11:13:32.244Z,13.68
2023-02-19T11:16:00.151Z,14.90
2023-02-19T11:18:32.573Z,13.52
2023-02-19T11:21:02.147Z,12.32
2023-02-19T11:23:36.193Z,12.98
2023-02-19T11:26:15.581Z,12.13
2023-02-19T11:28:43.494Z,11.95
2023-02-19T11:31:19.428Z,11.57
2023-02-19T11:33:54.112Z,11.75
2023-02-19T11:36:23.518Z,13.13
2023-02-19T11:38:50.058Z,11.65
2023-02-19T11:41:51.311Z,10.88
2023-02-19T11:44:44.019Z,11.70
2023-02-19T11:47:45.051Z,10.80
2023-02-19T11:50:26.638Z,10.45
2023-02-19T11:53:11.107Z,10.48
2023-02-19T11:56:05.908Z,10.93
2023-02-19T11:59:09.991Z,10.35
2023-02-19T12:01:48.858Z,10.05
2023-02-19T12:04:27.435Z,10.07
2023-02-19T12:07:12.438Z,8.95
2023-02-19T12:09:41.741Z,9.70
2023-02-19T12:12:15.151Z,8.88
2023-02-19T12:15:00.475Z,9.18
2023-02-19T12:17:51.544Z,8.73
2023-02-19T12:20:31.415Z,9.05
2023-02-19T12:23:30.435Z,9.07
2023-02-19T12:26:04.369Z,9.68
2023-02-19T12:28:49.715Z,8.63
2023-02-19T12:31:28.528Z,8.60
2023-02-19T12:34:10.123Z,8.13
2023-02-19T12:37:08.806Z,8.23
2023-02-19T12:39:50.515Z,8.38
2023-02-19T12:42:35.700Z,8.90
2023-02-19T12:45:16.489Z,9.60
2023-02-19T12:47:45.564Z,10.23
2023-02-19T12:50:19.062Z,10.68
2023-02-19T12:52:50.811Z,11.80
2023-02-19T12:55:30.770Z,11.48
2023-02-19T12:58:02.022Z,13.57
2023-02-19T13:00:35.614Z,12.05
2023-02-19T13:03:22.176Z,12.95
2023-02-19T13:06:36.249Z,12.98
2023-02-19T13:09:15.777Z,14.33
2023-02-19T13:11:50.607Z,13.32
2023-02-19T13:14:33.922Z,15.63
2023-02-19T13:17:09.381Z,14.23
2023-02-19T13:19:38.476Z,15.52
2023-02-19T13:22:47.007Z,14.52
2023-02-19T13:25:16.285Z,15.55
2023-02-19T13:28:00.962Z,16.02
2023-02-19T13:30:47.266Z,16.00
2023-02-19T13:33:35.129Z,14.88
2023-02-19T13:36:10.474Z,14.45
2023-02-19T13:38:41.036Z,15.40
2023-02-19T13:41:18.652Z,13.88
2023-02-19T13:43:46.976Z,14.15
2023-02-19T13:46:20.204Z,14.73
2023-02-19T13:48:46.808Z,13.98
2023-02-19T13:51:15.914Z,12.45
2023-02-19T13:53:45.549Z,12.85
2023-02-19T13:56:30.160Z,11.43
2023-02-19T13:58:58.584Z,12.38
2023-02-19T14:01:53.211Z,12.13
2023-02-19T14:04:38.255Z,12.40
2023-02-19T14:07:04.739Z,11.07
2023-02-19T14:09:34.338Z,10.20
2023-02-19T14:12:17.595Z,10.70
2023-02-19T14:14:45.701Z,10.88
2023-02-19T14:17:41.910Z,10.43
2023-02-19T14:20:17.585Z,9.75
2023-02-19T14:22:49.683Z,9.73
2023-02-19T14:25:28.590Z,9.38
2023-02-19T14:28:04.643Z,8.02
2023-02-19T14:30:48.745Z,9.05
2023-02-19T14:33:18.244Z,8.68
2023-02-19T14:35:47.421Z,9.32
2023-02-19T14:38:20.468Z,8.55
2023-02-19T14:40:48.594Z,7.82
2023-02-19T14:43:18.421Z,8.32
2023-02-19T14:46:15.447Z,7.15
2023-02-19T14:48:46.439Z,7.85
2023-02-19T14:51:36.071Z,7.25
2023-02-19T14:54:15.327Z,7.40
2023-02-19T14:56:45.787Z,7.45
2023-02-19T14:59:12.257Z,8.63
2023-02-19T15:01:39.215Z,8.63
2023-02-19T15:04:06.603Z,11.40
2023-02-19T15:06:35.864Z,12.18
2023-02-19T15:09:07.256Z,12.13
2023-02-19T15:11:35.780Z,15.82
2023-02-19T15:14:05.570Z,14.90
2023-02-19T15:16:35.702Z,15.43
2023-02-19T15:19:07.650Z,15.57
2023-02-19T15:21:38.834Z,16.38
2023-02-19T15:24:07.012Z,16.30
2023-02-19T15:26:39.015Z,16.55
2023-02-19T15:29:12.035Z,15.82
2023-02-19T15:31:49.680Z,15.52
2023-02-19T15:34:28.418Z,15.20
2023-02-19T15:36:59.738Z,15.13
2023-02-19T15:39:39.206Z,16.52
2023-02-19T15:42:07.889Z,16.13
2023-02-19T15:44:40.597Z,16.45
2023-02-19T15:47:33.321Z,15.27
2023-02-19T15:50:21.652Z,15.65
2023-02-19T15:52:59.349Z,15.93
2023-02-19T15:56:01.080Z,14.93
2023-02-19T15:58:42.808Z,14.35
2023-02-19T16:01:28.541Z,13.80
2023-02-19T16:03:55.757Z,13.32
2023-02-19T16:06:24.508Z,13.10
2023-02-19T16:09:03.959Z,14.18
2023-02-19T16:12:00.398Z,14.57
2023-02-19T16:14:26.821Z,14.88
2023-02-19T16:17:10.482Z,16.20
2023-02-19T16:19:42.983Z,14.55
2023-02-19T16:22:11.651Z,15.05
2023-02-19T16:24:45.181Z,17.20
2023-02-19T16:27:14.794Z,18.38
2023-02-19T16:29:41.451Z,18.20
2023-02-19T16:32:16.630Z,18.73
2023-02-19T16:34:48.120Z,20.85
2023-02-19T16:37:37.619Z,20.33
2023-02-19T16:40:07.180Z,22.45
2023-02-19T16:42:34.907Z,23.45
2023-02-19T16:45:01.924Z,25.33
2023-02-19T16:47:30.943Z,26.23
2023-02-19T16:50:00.385Z,26.40
2023-02-19T16:52:27.332Z,26.30
2023-02-19T16:54:53.891Z,26.80
2023-02-19T16:57:20.830Z,28.55
2023-02-19T16:59:48.170Z,28.20
2023-02-19T17:02:22.356Z,29.70
2023-02-19T17:04:50.011Z,28.60
2023-02-19T17:07:18.196Z,27.90
2023-02-19T17:09:45.021Z,28.13
2023-02-19T17:12:13.939Z,28.13
2023-02-19T17:14:40.535Z,27.30
2023-02-19T17:17:07.101Z,27.13
2023-02-19T17:19:33.900Z,26.83
2023-02-19T17:22:00.464Z,27.42
2023-02-19T17:24:26.995Z,29.90
2023-02-19T17:26:53.597Z,33.60
2023-02-19T17:29:20.163Z,36.22
2023-02-19T17:31:46.849Z,39.00
2023-02-19T17:34:13.426Z,39.92
2023-02-19T17:36:40.888Z,40.20
2023-02-19T17:39:08.285Z,41.58
2023-02-19T17:41:35.124Z,42.25
2023-02-19T17:44:01.635Z,43.88
2023-02-19T17:46:28.181Z,42.85
2023-02-19T17:48:55.410Z,40.58
2023-02-19T17:51:22.318Z,41.45
2023-02-19T17:53:49.435Z,42.70
2023-02-19T17:56:18.820Z,43.22
2023-02-19T17:58:45.944Z,41.03
2023-02-19T18:01:12.899Z,39.80
2023-02-19T18:03:39.712Z,41.13
2023-02-19T18:06:06.633Z,40.50
2023-02-19T18:08:33.132Z,42.58
2023-02-19T18:11:00.266Z,38.83
2023-02-19T18:13:27.282Z,40.58
2023-02-19T18:15:54.075Z,40.40
2023-02-19T18:18:21.183Z,39.92
2023-02-19T18:20:47.759Z,37.33
2023-02-19T18:23:14.751Z,37.08
2023-02-19T18:25:41.234Z,36.63
2023-02-19T18:28:07.825Z,36.88
2023-02-19T18:30:34.434Z,36.15
2023-02-19T18:33:02.321Z,32.58
2023-02-19T18:35:28.894Z,32.58
2023-02-19T18:37:55.873Z,31.63
2023-02-19T18:40:25.892Z,30.38
2023-02-19T18:42:52.854Z,31.05
2023-02-19T18:45:19.397Z,30.48
2023-02-19T18:47:47.965Z,30.23
2023-02-19T18:50:15.110Z,28.65
2023-02-19T18:52:41.721Z,29.40
2023-02-19T18:55:10.742Z,28.67
2023-02-19T18:57:37.511Z,27.42
2023-02-19T19:00:08.029Z,27.23
2023-02-19T19:02:48.434Z,26.58
2023-02-19T19:05:21.438Z,25.58
2023-02-19T19:07:48.591Z,26.38
2023-02-19T19:10:15.131Z,25.35
2023-02-19T19:12:41.986Z,25.15
2023-02-19T19:15:08.953Z,24.88
2023-02-19T19:17:35.591Z,23.25
2023-02-19T19:20:02.154Z,22.95
2023-02-19T19:22:28.624Z,23.23
2023-02-19T19:24:55.161Z,22.17
2023-02-19T19:27:21.736Z,22.38
2023-02-19T19:29:49.711Z,21.88
2023-02-19T19:32:16.287Z,20.50
2023-02-19T19:34:43.152Z,20.52
2023-02-19T19:37:09.838Z,19.50
2023-02-19T19:39:37.149Z,21.23
2023-02-19T19:42:04.510Z,19.83
2023-02-19T19:44:31.070Z,19.98
2023-02-19T19:46:57.767Z,19.10
2023-02-19T19:49:24.389Z,18.35
2023-02-19T19:51:51.045Z,18.30
2023-02-19T19:54:17.610Z,17.60
2023-02-19T19:56:46.971Z,18.02
2023-02-19T19:59:16.402Z,18.45
2023-02-19T20:01:54.565Z,19.50
2023-02-19T20:04:23.355Z,19.65
2023-02-19T20:06:50.188Z,20.48
2023-02-19T20:09:18.078Z,19.13
2023-02-19T20:11:50.220Z,20.30
2023-02-19T20:14:18.627Z,21.10
2023-02-19T20:16:47.393Z,20.67
2023-02-19T20:19:15.485Z,19.92
2023-02-19T20:21:46.715Z,21.23
2023-02-19T20:24:15.363Z,19.98
2023-02-19T20:26:41.989Z,20.70
2023-02-19T20:29:10.462Z,20.60
2023-02-19T20:31:38.494Z,19.23
2023-02-19T20:34:05.704Z,18.80
2023-02-19T20:36:32.752Z,18.88
2023-02-19T20:38:59.403Z,17.65
2023-02-19T20:41:26.235Z,17.70
2023-02-19T20:43:52.739Z,18.85
2023-02-19T20:46:19.313Z,18.77
2023-02-19T20:48:46.100Z,18.33
2023-02-19T20:51:12.731Z,17.20
2023-02-19T20:53:41.373Z,17.63
2023-02-19T20:56:07.930Z,16.98
2023-02-19T20:58:34.458Z,15.90
2023-02-19T21:01:01.191Z,16.20
2023-02-19T21:03:27.767Z,15.05
2023-02-19T21:05:54.322Z,14.48
2023-02-19T21:08:20.888Z,14.15
2023-02-19T21:10:47.465Z,13.43
2023-02-19T21:13:14.017Z,14.05
2023-02-19T21:15:40.660Z,14.00
2023-02-19T21:18:07.286Z,13.30
2023-02-19T21:20:34.805Z,14.60
2023-02-19T21:23:01.871Z,14.18
2023-02-19T21:25:28.465Z,14.50
2023-02-19T21:27:54.975Z,13.52
2023-02-19T21:30:21.617Z,13.43
2023-02-19T21:32:48.176Z,13.55
2023-02-19T21:35:15.084Z,13.65
2023-02-19T21:37:43.397Z,13.82
2023-02-19T21:40:12.166Z,13.13
2023-02-19T21:42:39.150Z,12.77
2023-02-19T21:45:06.126Z,12.52
2023-02-19T21:47:32.671Z,12.50
2023-02-19T21:49:59.223Z,11.80
2023-02-19T21:52:26.924Z,11.27
2023-02-19T21:54:53.525Z,11.20
2023-02-19T21:57:20.056Z,10.40
2023-02-19T21:59:46.711Z,11.32
2023-02-19T22:02:13.475Z,10.77
2023-02-19T22:04:40.889Z,10.10
2023-02-19T22:07:07.443Z,10.30
2023-02-19T22:09:33.964Z,9.57
2023-02-19T22:12:00.469Z,10.55
2023-02-19T22:14:26.975Z,10.60
2023-02-19T22:16:53.476Z,9.30
2023-02-19T22:19:20.290Z,9.60
2023-02-19T22:21:46.829Z,9.60
2023-02-19T22:24:18.647Z,9.30
2023-02-19T22:26:45.753Z,10.05
2023-02-19T22:29:14.599Z,10.43
2023-02-19T22:31:41.761Z,9.60
2023-02-19T22:34:09.061Z,9.45
2023-02-19T22:36:39.666Z,8.93
2023-02-19T22:39:08.373Z,9.13
2023-02-19T22:41:34.963Z,9.60
2023-02-19T22:44:01.964Z,8.68
2023-02-19T22:46:30.370Z,8.93
2023-02-19T22:48:57.921Z,8.40
2023-02-19T22:51:25.234Z,8.55
2023-02-19T22:53:54.045Z,7.75
2023-02-19T22:56:23.168Z,8.38
2023-02-19T22:58:50.310Z,7.72
2023-02-19T23:01:17.405Z,8.50
2023-02-19T23:03:48.645Z,7.93
2023-02-19T23:06:17.435Z,8.25
2023-02-19T23:08:44.173Z,7.78
2023-02-19T23:11:12.389Z,7.43
2023-02-19T23:13:42.440Z,6.93
2023-02-19T23:16:09.175Z,7.20
2023-02-19T23:18:35.944Z,7.30
2023-02-19T23:21:02.463Z,7.15
2023-02-19T23:23:28.953Z,7.35
2023-02-19T23:25:55.540Z,7.75
2023-02-19T23:28:22.153Z,7.57
2023-02-19T23:30:48.772Z,7.40
2023-02-19T23:33:15.523Z,7.40
2023-02-19T23:35:42.027Z,7.10
2023-02-19T23:38:08.594Z,6.70
2023-02-19T23:40:35.183Z,6.63
2023-02-19T23:43:01.722Z,6.07
2023-02-19T23:45:29.270Z,7.07
2023-02-19T23:47:56.064Z,6.85
2023-02-19T23:50:22.575Z,6.63
2023-02-19T23:52:49.123Z,6.38
2023-02-19T23:55:15.744Z,6.43
2023-02-19T23:57:42.280Z,6.10
